sensor_id;sensor_type;location;lat;lon;timestamp;P1;durP1;ratioP1;P2;durP2;ratioP2
16965;SDS011;8599;47.852;12.070;2022-11-27T00:00:46;19.20;;;4.57;;
16965;SDS011;8599;47.852;12.070;2022-11-27T00:03:13;20.57;;;4.33;;
16965;SDS011;8599;47.852;12.070;2022-11-27T00:05:41;6.30;;;4.33;;
16965;SDS011;8599;47.852;12.070;2022-11-27T00:08:16;33.93;;;4.87;;
16965;SDS011;8599;47.852;12.070;2022-11-27T00:10:43;14.97;;;4.80;;
16965;SDS011;8599;47.852;12.070;2022-11-27T00:13:10;9.10;;;4.93;;
16965;SDS011;8599;47.852;12.070;2022-11-27T00:15:37;7.83;;;4.50;;
16965;SDS011;8599;47.852;12.070;2022-11-27T00:18:04;28.20;;;5.43;;
16965;SDS011;8599;47.852;12.070;2022-11-27T00:20:31;10.73;;;4.67;;
16965;SDS011;8599;47.852;12.070;2022-11-27T00:22:59;16.47;;;5.53;;
16965;SDS011;8599;47.852;12.070;2022-11-27T00:25:26;6.47;;;4.57;;
16965;SDS011;8599;47.852;12.070;2022-11-27T00:27:53;6.97;;;4.67;;
16965;SDS011;8599;47.852;12.070;2022-11-27T00:30:20;21.70;;;5.73;;
16965;SDS011;8599;47.852;12.070;2022-11-27T00:32:46;7.33;;;4.70;;
16965;SDS011;8599;47.852;12.070;2022-11-27T00:35:13;22.37;;;4.97;;
16965;SDS011;8599;47.852;12.070;2022-11-27T00:37:40;5.70;;;4.07;;
16965;SDS011;8599;47.852;12.070;2022-11-27T00:40:09;5.60;;;4.23;;
16965;SDS011;8599;47.852;12.070;2022-11-27T00:42:37;7.87;;;4.80;;
16965;SDS011;8599;47.852;12.070;2022-11-27T00:45:04;19.20;;;4.60;;
16965;SDS011;8599;47.852;12.070;2022-11-27T00:47:31;6.33;;;5.17;;
16965;SDS011;8599;47.852;12.070;2022-11-27T00:49:58;18.63;;;4.80;;
16965;SDS011;8599;47.852;12.070;2022-11-27T00:52:25;5.37;;;4.47;;
16965;SDS011;8599;47.852;12.070;2022-11-27T00:54:51;6.60;;;4.40;;
16965;SDS011;8599;47.852;12.070;2022-11-27T00:57:20;5.60;;;3.70;;
16965;SDS011;8599;47.852;12.070;2022-11-27T00:59:46;31.17;;;3.80;;
16965;SDS011;8599;47.852;12.070;2022-11-27T01:02:13;4.23;;;3.40;;
16965;SDS011;8599;47.852;12.070;2022-11-27T01:04:40;3.63;;;3.33;;
16965;SDS011;8599;47.852;12.070;2022-11-27T01:07:09;10.47;;;3.77;;
16965;SDS011;8599;47.852;12.070;2022-11-27T01:09:36;6.23;;;3.30;;
16965;SDS011;8599;47.852;12.070;2022-11-27T01:12:03;4.60;;;3.30;;
16965;SDS011;8599;47.852;12.070;2022-11-27T01:14:33;14.30;;;3.60;;
16965;SDS011;8599;47.852;12.070;2022-11-27T01:17:00;4.60;;;3.00;;
16965;SDS011;8599;47.852;12.070;2022-11-27T01:19:27;5.20;;;3.33;;
16965;SDS011;8599;47.852;12.070;2022-11-27T01:21:53;12.23;;;2.47;;
16965;SDS011;8599;47.852;12.070;2022-11-27T01:24:20;4.13;;;2.93;;
16965;SDS011;8599;47.852;12.070;2022-11-27T01:26:47;3.73;;;2.60;;
16965;SDS011;8599;47.852;12.070;2022-11-27T01:29:14;4.60;;;2.90;;
16965;SDS011;8599;47.852;12.070;2022-11-27T01:31:42;2.73;;;2.53;;
16965;SDS011;8599;47.852;12.070;2022-11-27T01:34:11;5.53;;;3.63;;
16965;SDS011;8599;47.852;12.070;2022-11-27T01:36:40;3.60;;;2.83;;
16965;SDS011;8599;47.852;12.070;2022-11-27T01:39:09;4.37;;;3.20;;
16965;SDS011;8599;47.852;12.070;2022-11-27T01:41:39;6.90;;;3.67;;
16965;SDS011;8599;47.852;12.070;2022-11-27T01:47:10;7.97;;;3.07;;
16965;SDS011;8599;47.852;12.070;2022-11-27T01:49:41;3.97;;;2.93;;
16965;SDS011;8599;47.852;12.070;2022-11-27T01:52:12;2.50;;;2.30;;
16965;SDS011;8599;47.852;12.070;2022-11-27T01:54:42;4.80;;;3.63;;
16965;SDS011;8599;47.852;12.070;2022-11-27T01:57:14;4.37;;;2.97;;
16965;SDS011;8599;47.852;12.070;2022-11-27T01:59:43;6.10;;;3.53;;
16965;SDS011;8599;47.852;12.070;2022-11-27T02:02:12;6.47;;;2.80;;
16965;SDS011;8599;47.852;12.070;2022-11-27T02:04:39;22.20;;;3.63;;
16965;SDS011;8599;47.852;12.070;2022-11-27T02:07:06;41.83;;;3.60;;
16965;SDS011;8599;47.852;12.070;2022-11-27T02:09:33;2.80;;;2.50;;
16965;SDS011;8599;47.852;12.070;2022-11-27T02:12:01;3.90;;;2.73;;
16965;SDS011;8599;47.852;12.070;2022-11-27T02:14:37;3.83;;;3.10;;
16965;SDS011;8599;47.852;12.070;2022-11-27T02:17:14;27.03;;;3.10;;
16965;SDS011;8599;47.852;12.070;2022-11-27T02:19:52;2.93;;;2.73;;
16965;SDS011;8599;47.852;12.070;2022-11-27T02:22:34;3.00;;;2.70;;
16965;SDS011;8599;47.852;12.070;2022-11-27T02:25:12;5.43;;;2.73;;
16965;SDS011;8599;47.852;12.070;2022-11-27T02:27:56;5.43;;;3.03;;
16965;SDS011;8599;47.852;12.070;2022-11-27T02:30:37;5.97;;;2.60;;
16965;SDS011;8599;47.852;12.070;2022-11-27T02:33:10;8.93;;;3.43;;
16965;SDS011;8599;47.852;12.070;2022-11-27T02:35:40;4.20;;;3.23;;
16965;SDS011;8599;47.852;12.070;2022-11-27T02:38:14;15.23;;;3.70;;
16965;SDS011;8599;47.852;12.070;2022-11-27T02:40:47;11.43;;;3.73;;
16965;SDS011;8599;47.852;12.070;2022-11-27T02:43:20;15.00;;;2.93;;
16965;SDS011;8599;47.852;12.070;2022-11-27T02:45:52;3.90;;;2.93;;
16965;SDS011;8599;47.852;12.070;2022-11-27T02:48:22;3.73;;;3.23;;
16965;SDS011;8599;47.852;12.070;2022-11-27T02:50:55;4.57;;;3.10;;
16965;SDS011;8599;47.852;12.070;2022-11-27T02:53:24;4.13;;;3.20;;
16965;SDS011;8599;47.852;12.070;2022-11-27T02:55:56;5.10;;;3.27;;
16965;SDS011;8599;47.852;12.070;2022-11-27T02:58:25;4.73;;;3.03;;
16965;SDS011;8599;47.852;12.070;2022-11-27T03:00:55;14.57;;;3.40;;
16965;SDS011;8599;47.852;12.070;2022-11-27T03:03:23;4.60;;;2.87;;
16965;SDS011;8599;47.852;12.070;2022-11-27T03:05:55;4.20;;;3.40;;
16965;SDS011;8599;47.852;12.070;2022-11-27T03:08:27;10.03;;;3.10;;
16965;SDS011;8599;47.852;12.070;2022-11-27T03:11:00;9.17;;;3.60;;
16965;SDS011;8599;47.852;12.070;2022-11-27T03:13:29;2.90;;;2.47;;
16965;SDS011;8599;47.852;12.070;2022-11-27T03:16:04;6.00;;;3.17;;
16965;SDS011;8599;47.852;12.070;2022-11-27T03:18:36;15.93;;;2.90;;
16965;SDS011;8599;47.852;12.070;2022-11-27T03:21:08;3.30;;;2.83;;
16965;SDS011;8599;47.852;12.070;2022-11-27T03:23:43;20.30;;;3.40;;
16965;SDS011;8599;47.852;12.070;2022-11-27T03:26:10;7.10;;;3.10;;
16965;SDS011;8599;47.852;12.070;2022-11-27T03:28:36;5.10;;;3.23;;
16965;SDS011;8599;47.852;12.070;2022-11-27T03:31:05;3.77;;;3.00;;
16965;SDS011;8599;47.852;12.070;2022-11-27T03:33:32;3.17;;;2.50;;
16965;SDS011;8599;47.852;12.070;2022-11-27T03:35:59;4.40;;;3.43;;
16965;SDS011;8599;47.852;12.070;2022-11-27T03:38:26;4.67;;;3.27;;
16965;SDS011;8599;47.852;12.070;2022-11-27T03:40:54;3.10;;;2.43;;
16965;SDS011;8599;47.852;12.070;2022-11-27T03:43:28;3.20;;;2.50;;
16965;SDS011;8599;47.852;12.070;2022-11-27T03:46:03;13.23;;;2.93;;
16965;SDS011;8599;47.852;12.070;2022-11-27T03:48:40;5.57;;;2.97;;
16965;SDS011;8599;47.852;12.070;2022-11-27T03:51:15;3.60;;;3.00;;
16965;SDS011;8599;47.852;12.070;2022-11-27T03:53:48;5.67;;;2.77;;
16965;SDS011;8599;47.852;12.070;2022-11-27T03:56:21;3.63;;;3.27;;
16965;SDS011;8599;47.852;12.070;2022-11-27T03:58:57;3.70;;;2.77;;
16965;SDS011;8599;47.852;12.070;2022-11-27T04:01:30;4.27;;;3.17;;
16965;SDS011;8599;47.852;12.070;2022-11-27T04:03:57;4.63;;;3.20;;
16965;SDS011;8599;47.852;12.070;2022-11-27T04:06:24;2.87;;;2.67;;
16965;SDS011;8599;47.852;12.070;2022-11-27T04:08:50;4.77;;;3.10;;
16965;SDS011;8599;47.852;12.070;2022-11-27T04:11:17;2.73;;;2.37;;
16965;SDS011;8599;47.852;12.070;2022-11-27T04:13:44;7.00;;;2.47;;
16965;SDS011;8599;47.852;12.070;2022-11-27T04:16:11;6.97;;;3.20;;
16965;SDS011;8599;47.852;12.070;2022-11-27T04:18:39;4.83;;;3.10;;
16965;SDS011;8599;47.852;12.070;2022-11-27T04:21:06;2.67;;;2.47;;
16965;SDS011;8599;47.852;12.070;2022-11-27T04:23:33;4.43;;;3.50;;
16965;SDS011;8599;47.852;12.070;2022-11-27T04:26:01;5.53;;;3.07;;
16965;SDS011;8599;47.852;12.070;2022-11-27T04:28:28;3.03;;;2.57;;
16965;SDS011;8599;47.852;12.070;2022-11-27T04:30:55;4.03;;;3.07;;
16965;SDS011;8599;47.852;12.070;2022-11-27T04:33:22;2.73;;;2.53;;
16965;SDS011;8599;47.852;12.070;2022-11-27T04:35:51;2.60;;;2.40;;
16965;SDS011;8599;47.852;12.070;2022-11-27T04:38:18;3.10;;;2.80;;
16965;SDS011;8599;47.852;12.070;2022-11-27T04:40:46;3.00;;;2.57;;
16965;SDS011;8599;47.852;12.070;2022-11-27T04:43:13;3.20;;;2.90;;
16965;SDS011;8599;47.852;12.070;2022-11-27T04:45:40;3.67;;;2.80;;
16965;SDS011;8599;47.852;12.070;2022-11-27T04:48:08;3.47;;;2.73;;
16965;SDS011;8599;47.852;12.070;2022-11-27T04:50:35;5.07;;;2.63;;
16965;SDS011;8599;47.852;12.070;2022-11-27T04:53:03;2.93;;;2.63;;
16965;SDS011;8599;47.852;12.070;2022-11-27T04:55:30;2.03;;;1.83;;
16965;SDS011;8599;47.852;12.070;2022-11-27T04:57:57;3.73;;;2.47;;
16965;SDS011;8599;47.852;12.070;2022-11-27T05:00:24;2.90;;;2.60;;
16965;SDS011;8599;47.852;12.070;2022-11-27T05:02:50;3.47;;;2.63;;
16965;SDS011;8599;47.852;12.070;2022-11-27T05:05:17;5.13;;;2.37;;
16965;SDS011;8599;47.852;12.070;2022-11-27T05:07:44;6.30;;;2.90;;
16965;SDS011;8599;47.852;12.070;2022-11-27T05:10:12;4.87;;;2.03;;
16965;SDS011;8599;47.852;12.070;2022-11-27T05:12:39;3.23;;;2.40;;
16965;SDS011;8599;47.852;12.070;2022-11-27T05:15:07;2.50;;;2.30;;
16965;SDS011;8599;47.852;12.070;2022-11-27T05:17:34;2.50;;;2.30;;
16965;SDS011;8599;47.852;12.070;2022-11-27T05:20:01;12.83;;;2.87;;
16965;SDS011;8599;47.852;12.070;2022-11-27T05:22:28;4.07;;;2.90;;
16965;SDS011;8599;47.852;12.070;2022-11-27T05:24:55;6.37;;;2.93;;
16965;SDS011;8599;47.852;12.070;2022-11-27T05:27:23;4.70;;;2.93;;
16965;SDS011;8599;47.852;12.070;2022-11-27T05:29:50;6.57;;;2.93;;
16965;SDS011;8599;47.852;12.070;2022-11-27T05:32:17;3.20;;;2.90;;
16965;SDS011;8599;47.852;12.070;2022-11-27T05:34:44;3.90;;;3.00;;
16965;SDS011;8599;47.852;12.070;2022-11-27T05:37:12;2.63;;;2.27;;
16965;SDS011;8599;47.852;12.070;2022-11-27T05:39:39;4.27;;;2.60;;
16965;SDS011;8599;47.852;12.070;2022-11-27T05:42:06;3.10;;;2.80;;
16965;SDS011;8599;47.852;12.070;2022-11-27T05:44:34;15.20;;;3.03;;
16965;SDS011;8599;47.852;12.070;2022-11-27T05:47:01;3.43;;;2.10;;
16965;SDS011;8599;47.852;12.070;2022-11-27T05:49:28;3.97;;;2.83;;
16965;SDS011;8599;47.852;12.070;2022-11-27T05:51:55;5.20;;;2.90;;
16965;SDS011;8599;47.852;12.070;2022-11-27T05:54:22;2.87;;;2.60;;
16965;SDS011;8599;47.852;12.070;2022-11-27T05:56:48;7.73;;;3.40;;
16965;SDS011;8599;47.852;12.070;2022-11-27T05:59:15;3.10;;;2.80;;
16965;SDS011;8599;47.852;12.070;2022-11-27T06:01:44;3.00;;;2.70;;
16965;SDS011;8599;47.852;12.070;2022-11-27T06:04:10;3.53;;;3.00;;
16965;SDS011;8599;47.852;12.070;2022-11-27T06:06:37;8.00;;;2.73;;
16965;SDS011;8599;47.852;12.070;2022-11-27T06:09:04;14.40;;;2.73;;
16965;SDS011;8599;47.852;12.070;2022-11-27T06:11:31;10.13;;;2.83;;
16965;SDS011;8599;47.852;12.070;2022-11-27T06:13:58;4.33;;;2.93;;
16965;SDS011;8599;47.852;12.070;2022-11-27T06:16:24;6.43;;;3.30;;
16965;SDS011;8599;47.852;12.070;2022-11-27T06:18:53;2.70;;;2.50;;
16965;SDS011;8599;47.852;12.070;2022-11-27T06:21:21;5.13;;;3.20;;
16965;SDS011;8599;47.852;12.070;2022-11-27T06:23:51;9.70;;;3.17;;
16965;SDS011;8599;47.852;12.070;2022-11-27T06:26:20;4.30;;;2.93;;
16965;SDS011;8599;47.852;12.070;2022-11-27T06:28:48;3.70;;;3.00;;
16965;SDS011;8599;47.852;12.070;2022-11-27T06:31:16;7.47;;;3.47;;
16965;SDS011;8599;47.852;12.070;2022-11-27T06:33:45;4.53;;;2.47;;
16965;SDS011;8599;47.852;12.070;2022-11-27T06:36:13;5.47;;;3.20;;
16965;SDS011;8599;47.852;12.070;2022-11-27T06:38:40;5.37;;;3.20;;
16965;SDS011;8599;47.852;12.070;2022-11-27T06:41:08;4.53;;;3.17;;
16965;SDS011;8599;47.852;12.070;2022-11-27T06:43:36;4.13;;;2.87;;
16965;SDS011;8599;47.852;12.070;2022-11-27T06:46:03;7.07;;;2.80;;
16965;SDS011;8599;47.852;12.070;2022-11-27T06:48:32;12.60;;;3.03;;
16965;SDS011;8599;47.852;12.070;2022-11-27T06:50:59;2.57;;;2.37;;
16965;SDS011;8599;47.852;12.070;2022-11-27T06:53:28;4.23;;;3.07;;
16965;SDS011;8599;47.852;12.070;2022-11-27T06:55:56;2.60;;;2.40;;
16965;SDS011;8599;47.852;12.070;2022-11-27T06:58:23;4.73;;;2.87;;
16965;SDS011;8599;47.852;12.070;2022-11-27T07:00:55;5.20;;;3.47;;
16965;SDS011;8599;47.852;12.070;2022-11-27T07:03:23;12.70;;;4.07;;
16965;SDS011;8599;47.852;12.070;2022-11-27T07:05:50;4.87;;;3.47;;
16965;SDS011;8599;47.852;12.070;2022-11-27T07:08:17;5.23;;;3.77;;
16965;SDS011;8599;47.852;12.070;2022-11-27T07:10:45;5.43;;;3.30;;
16965;SDS011;8599;47.852;12.070;2022-11-27T07:13:12;4.57;;;3.93;;
16965;SDS011;8599;47.852;12.070;2022-11-27T07:15:39;4.43;;;3.40;;
16965;SDS011;8599;47.852;12.070;2022-11-27T07:18:06;7.30;;;3.13;;
16965;SDS011;8599;47.852;12.070;2022-11-27T07:20:33;5.27;;;3.60;;
16965;SDS011;8599;47.852;12.070;2022-11-27T07:23:00;3.50;;;2.70;;
16965;SDS011;8599;47.852;12.070;2022-11-27T07:25:26;4.27;;;3.07;;
16965;SDS011;8599;47.852;12.070;2022-11-27T07:27:55;3.40;;;2.93;;
16965;SDS011;8599;47.852;12.070;2022-11-27T07:30:22;4.80;;;3.80;;
16965;SDS011;8599;47.852;12.070;2022-11-27T07:32:48;4.97;;;3.93;;
16965;SDS011;8599;47.852;12.070;2022-11-27T07:35:15;8.03;;;4.53;;
16965;SDS011;8599;47.852;12.070;2022-11-27T07:37:43;5.93;;;3.53;;
16965;SDS011;8599;47.852;12.070;2022-11-27T07:40:10;6.63;;;3.33;;
16965;SDS011;8599;47.852;12.070;2022-11-27T07:42:37;2.80;;;2.60;;
16965;SDS011;8599;47.852;12.070;2022-11-27T07:45:06;3.30;;;3.00;;
16965;SDS011;8599;47.852;12.070;2022-11-27T07:47:33;5.57;;;3.47;;
16965;SDS011;8599;47.852;12.070;2022-11-27T07:50:00;4.43;;;2.90;;
16965;SDS011;8599;47.852;12.070;2022-11-27T07:52:27;4.27;;;2.97;;
16965;SDS011;8599;47.852;12.070;2022-11-27T07:54:54;3.83;;;3.03;;
16965;SDS011;8599;47.852;12.070;2022-11-27T07:57:20;3.63;;;3.03;;
16965;SDS011;8599;47.852;12.070;2022-11-27T07:59:47;3.83;;;2.97;;
16965;SDS011;8599;47.852;12.070;2022-11-27T08:02:16;2.50;;;2.30;;
16965;SDS011;8599;47.852;12.070;2022-11-27T08:04:42;3.33;;;3.03;;
16965;SDS011;8599;47.852;12.070;2022-11-27T08:07:09;2.53;;;2.30;;
16965;SDS011;8599;47.852;12.070;2022-11-27T08:09:36;7.87;;;2.77;;
16965;SDS011;8599;47.852;12.070;2022-11-27T08:12:04;4.63;;;3.20;;
16965;SDS011;8599;47.852;12.070;2022-11-27T08:14:32;4.47;;;2.67;;
16965;SDS011;8599;47.852;12.070;2022-11-27T08:16:58;4.93;;;3.20;;
16965;SDS011;8599;47.852;12.070;2022-11-27T08:19:27;5.33;;;2.83;;
16965;SDS011;8599;47.852;12.070;2022-11-27T08:21:54;3.60;;;2.73;;
16965;SDS011;8599;47.852;12.070;2022-11-27T08:24:21;4.90;;;3.17;;
16965;SDS011;8599;47.852;12.070;2022-11-27T08:26:48;8.63;;;3.57;;
16965;SDS011;8599;47.852;12.070;2022-11-27T08:29:16;3.10;;;2.80;;
16965;SDS011;8599;47.852;12.070;2022-11-27T08:31:43;5.33;;;3.50;;
16965;SDS011;8599;47.852;12.070;2022-11-27T08:34:09;5.13;;;3.23;;
16965;SDS011;8599;47.852;12.070;2022-11-27T08:36:38;4.97;;;3.23;;
16965;SDS011;8599;47.852;12.070;2022-11-27T08:39:05;6.17;;;4.13;;
16965;SDS011;8599;47.852;12.070;2022-11-27T08:41:31;6.33;;;3.40;;
16965;SDS011;8599;47.852;12.070;2022-11-27T08:43:58;5.93;;;3.60;;
16965;SDS011;8599;47.852;12.070;2022-11-27T08:46:26;3.80;;;3.10;;
16965;SDS011;8599;47.852;12.070;2022-11-27T08:48:52;5.80;;;3.07;;
16965;SDS011;8599;47.852;12.070;2022-11-27T08:51:19;6.87;;;4.00;;
16965;SDS011;8599;47.852;12.070;2022-11-27T08:53:47;5.80;;;4.23;;
16965;SDS011;8599;47.852;12.070;2022-11-27T08:56:15;5.77;;;3.40;;
16965;SDS011;8599;47.852;12.070;2022-11-27T08:58:43;5.67;;;3.43;;
16965;SDS011;8599;47.852;12.070;2022-11-27T09:01:12;3.60;;;3.00;;
16965;SDS011;8599;47.852;12.070;2022-11-27T09:03:40;3.77;;;3.17;;
16965;SDS011;8599;47.852;12.070;2022-11-27T09:06:08;3.80;;;2.97;;
16965;SDS011;8599;47.852;12.070;2022-11-27T09:08:36;3.70;;;2.83;;
16965;SDS011;8599;47.852;12.070;2022-11-27T09:11:05;5.37;;;3.33;;
16965;SDS011;8599;47.852;12.070;2022-11-27T09:13:32;4.03;;;2.90;;
16965;SDS011;8599;47.852;12.070;2022-11-27T09:16:01;6.43;;;2.90;;
16965;SDS011;8599;47.852;12.070;2022-11-27T09:18:28;9.33;;;3.50;;
16965;SDS011;8599;47.852;12.070;2022-11-27T09:20:55;5.63;;;3.57;;
16965;SDS011;8599;47.852;12.070;2022-11-27T09:23:23;3.30;;;2.97;;
16965;SDS011;8599;47.852;12.070;2022-11-27T09:25:51;3.23;;;2.63;;
16965;SDS011;8599;47.852;12.070;2022-11-27T09:28:19;19.73;;;3.60;;
16965;SDS011;8599;47.852;12.070;2022-11-27T09:30:46;5.97;;;3.60;;
16965;SDS011;8599;47.852;12.070;2022-11-27T09:33:13;14.03;;;3.37;;
16965;SDS011;8599;47.852;12.070;2022-11-27T09:35:40;4.37;;;3.00;;
16965;SDS011;8599;47.852;12.070;2022-11-27T09:38:06;2.67;;;2.17;;
16965;SDS011;8599;47.852;12.070;2022-11-27T09:40:33;9.83;;;3.57;;
16965;SDS011;8599;47.852;12.070;2022-11-27T09:43:01;2.93;;;2.70;;
16965;SDS011;8599;47.852;12.070;2022-11-27T09:45:35;4.07;;;2.97;;
16965;SDS011;8599;47.852;12.070;2022-11-27T09:48:11;3.20;;;2.90;;
16965;SDS011;8599;47.852;12.070;2022-11-27T09:50:45;5.20;;;3.37;;
16965;SDS011;8599;47.852;12.070;2022-11-27T09:53:19;3.70;;;3.10;;
16965;SDS011;8599;47.852;12.070;2022-11-27T09:55:50;4.70;;;3.47;;
16965;SDS011;8599;47.852;12.070;2022-11-27T09:58:22;3.30;;;2.97;;
16965;SDS011;8599;47.852;12.070;2022-11-27T10:01:04;3.23;;;2.53;;
16965;SDS011;8599;47.852;12.070;2022-11-27T10:03:36;3.83;;;2.40;;
16965;SDS011;8599;47.852;12.070;2022-11-27T10:06:10;3.30;;;2.20;;
16965;SDS011;8599;47.852;12.070;2022-11-27T10:08:48;3.60;;;2.60;;
16965;SDS011;8599;47.852;12.070;2022-11-27T10:11:25;3.90;;;2.83;;
16965;SDS011;8599;47.852;12.070;2022-11-27T10:14:00;2.60;;;2.23;;
16965;SDS011;8599;47.852;12.070;2022-11-27T10:16:38;4.40;;;2.57;;
16965;SDS011;8599;47.852;12.070;2022-11-27T10:19:11;4.47;;;2.80;;
16965;SDS011;8599;47.852;12.070;2022-11-27T10:21:48;4.20;;;2.80;;
16965;SDS011;8599;47.852;12.070;2022-11-27T10:24:22;6.57;;;3.43;;
16965;SDS011;8599;47.852;12.070;2022-11-27T10:27:00;10.87;;;4.07;;
16965;SDS011;8599;47.852;12.070;2022-11-27T10:29:34;4.33;;;3.23;;
16965;SDS011;8599;47.852;12.070;2022-11-27T10:32:06;7.17;;;3.10;;
16965;SDS011;8599;47.852;12.070;2022-11-27T10:34:39;13.03;;;3.23;;
16965;SDS011;8599;47.852;12.070;2022-11-27T10:37:12;9.83;;;4.70;;
16965;SDS011;8599;47.852;12.070;2022-11-27T10:39:44;21.07;;;4.17;;
16965;SDS011;8599;47.852;12.070;2022-11-27T10:42:14;5.17;;;3.80;;
16965;SDS011;8599;47.852;12.070;2022-11-27T10:44:48;3.67;;;3.07;;
16965;SDS011;8599;47.852;12.070;2022-11-27T10:47:21;4.47;;;2.67;;
16965;SDS011;8599;47.852;12.070;2022-11-27T10:49:52;3.30;;;2.33;;
16965;SDS011;8599;47.852;12.070;2022-11-27T10:52:19;5.20;;;2.93;;
16965;SDS011;8599;47.852;12.070;2022-11-27T10:54:48;6.50;;;3.47;;
16965;SDS011;8599;47.852;12.070;2022-11-27T11:00:12;2.83;;;2.63;;
16965;SDS011;8599;47.852;12.070;2022-11-27T11:02:46;4.97;;;3.57;;
16965;SDS011;8599;47.852;12.070;2022-11-27T11:05:19;3.50;;;2.30;;
16965;SDS011;8599;47.852;12.070;2022-11-27T11:07:55;2.77;;;2.47;;
16965;SDS011;8599;47.852;12.070;2022-11-27T11:10:25;5.07;;;2.43;;
16965;SDS011;8599;47.852;12.070;2022-11-27T11:15:49;6.23;;;2.97;;
16965;SDS011;8599;47.852;12.070;2022-11-27T11:18:25;4.60;;;2.90;;
16965;SDS011;8599;47.852;12.070;2022-11-27T11:20:54;4.03;;;2.80;;
16965;SDS011;8599;47.852;12.070;2022-11-27T11:23:25;6.37;;;3.53;;
16965;SDS011;8599;47.852;12.070;2022-11-27T11:25:56;10.57;;;3.20;;
16965;SDS011;8599;47.852;12.070;2022-11-27T11:28:26;4.07;;;3.07;;
16965;SDS011;8599;47.852;12.070;2022-11-27T11:30:55;3.40;;;3.07;;
16965;SDS011;8599;47.852;12.070;2022-11-27T11:33:26;5.37;;;3.33;;
16965;SDS011;8599;47.852;12.070;2022-11-27T11:36:05;3.93;;;3.53;;
16965;SDS011;8599;47.852;12.070;2022-11-27T11:38:34;4.40;;;3.50;;
16965;SDS011;8599;47.852;12.070;2022-11-27T11:41:03;3.47;;;2.20;;
16965;SDS011;8599;47.852;12.070;2022-11-27T11:43:32;5.80;;;3.20;;
16965;SDS011;8599;47.852;12.070;2022-11-27T11:46:05;4.00;;;3.60;;
16965;SDS011;8599;47.852;12.070;2022-11-27T11:48:50;5.93;;;3.53;;
16965;SDS011;8599;47.852;12.070;2022-11-27T11:51:20;6.10;;;3.50;;
16965;SDS011;8599;47.852;12.070;2022-11-27T11:53:55;8.40;;;3.60;;
16965;SDS011;8599;47.852;12.070;2022-11-27T11:56:34;6.43;;;4.03;;
16965;SDS011;8599;47.852;12.070;2022-11-27T11:59:06;7.43;;;4.17;;
16965;SDS011;8599;47.852;12.070;2022-11-27T12:01:48;7.10;;;4.30;;
16965;SDS011;8599;47.852;12.070;2022-11-27T12:04:37;6.00;;;4.10;;
16965;SDS011;8599;47.852;12.070;2022-11-27T12:07:17;5.07;;;3.67;;
16965;SDS011;8599;47.852;12.070;2022-11-27T12:09:54;10.50;;;5.13;;
16965;SDS011;8599;47.852;12.070;2022-11-27T12:12:32;7.23;;;4.43;;
16965;SDS011;8599;47.852;12.070;2022-11-27T12:15:10;4.83;;;3.73;;
16965;SDS011;8599;47.852;12.070;2022-11-27T12:17:47;12.80;;;5.50;;
16965;SDS011;8599;47.852;12.070;2022-11-27T12:20:25;5.17;;;4.03;;
16965;SDS011;8599;47.852;12.070;2022-11-27T12:26:18;6.67;;;4.83;;
16965;SDS011;8599;47.852;12.070;2022-11-27T12:29:01;7.23;;;4.77;;
16965;SDS011;8599;47.852;12.070;2022-11-27T12:31:48;23.70;;;4.50;;
16965;SDS011;8599;47.852;12.070;2022-11-27T12:34:31;7.03;;;4.37;;
16965;SDS011;8599;47.852;12.070;2022-11-27T12:37:15;15.37;;;4.73;;
16965;SDS011;8599;47.852;12.070;2022-11-27T12:39:56;16.17;;;6.23;;
16965;SDS011;8599;47.852;12.070;2022-11-27T12:42:33;8.43;;;5.53;;
16965;SDS011;8599;47.852;12.070;2022-11-27T12:45:05;12.43;;;5.80;;
16965;SDS011;8599;47.852;12.070;2022-11-27T12:47:41;7.13;;;4.90;;
16965;SDS011;8599;47.852;12.070;2022-11-27T12:50:13;19.40;;;5.27;;
16965;SDS011;8599;47.852;12.070;2022-11-27T12:52:48;4.93;;;3.97;;
16965;SDS011;8599;47.852;12.070;2022-11-27T12:55:23;12.43;;;5.60;;
16965;SDS011;8599;47.852;12.070;2022-11-27T12:57:55;6.90;;;4.93;;
16965;SDS011;8599;47.852;12.070;2022-11-27T13:00:27;11.40;;;5.87;;
16965;SDS011;8599;47.852;12.070;2022-11-27T13:02:59;10.23;;;6.10;;
16965;SDS011;8599;47.852;12.070;2022-11-27T13:05:32;9.33;;;5.27;;
16965;SDS011;8599;47.852;12.070;2022-11-27T13:08:09;7.20;;;5.00;;
16965;SDS011;8599;47.852;12.070;2022-11-27T13:10:42;10.63;;;5.93;;
16965;SDS011;8599;47.852;12.070;2022-11-27T13:13:13;20.13;;;5.80;;
16965;SDS011;8599;47.852;12.070;2022-11-27T13:15:44;10.37;;;5.97;;
16965;SDS011;8599;47.852;12.070;2022-11-27T13:18:17;27.40;;;6.60;;
16965;SDS011;8599;47.852;12.070;2022-11-27T13:20:49;6.57;;;4.50;;
16965;SDS011;8599;47.852;12.070;2022-11-27T13:23:19;7.73;;;4.90;;
16965;SDS011;8599;47.852;12.070;2022-11-27T13:25:47;7.80;;;5.33;;
16965;SDS011;8599;47.852;12.070;2022-11-27T13:28:19;7.27;;;5.07;;
16965;SDS011;8599;47.852;12.070;2022-11-27T13:30:51;8.53;;;4.63;;
16965;SDS011;8599;47.852;12.070;2022-11-27T13:33:27;13.33;;;4.43;;
16965;SDS011;8599;47.852;12.070;2022-11-27T13:36:00;9.63;;;5.00;;
16965;SDS011;8599;47.852;12.070;2022-11-27T13:38:30;11.27;;;5.73;;
16965;SDS011;8599;47.852;12.070;2022-11-27T13:41:00;9.47;;;5.23;;
16965;SDS011;8599;47.852;12.070;2022-11-27T13:43:34;10.63;;;5.77;;
16965;SDS011;8599;47.852;12.070;2022-11-27T13:46:08;8.93;;;5.60;;
16965;SDS011;8599;47.852;12.070;2022-11-27T13:48:40;7.83;;;5.83;;
16965;SDS011;8599;47.852;12.070;2022-11-27T13:51:20;13.20;;;7.53;;
16965;SDS011;8599;47.852;12.070;2022-11-27T13:53:50;9.90;;;5.60;;
16965;SDS011;8599;47.852;12.070;2022-11-27T13:56:27;7.10;;;5.53;;
16965;SDS011;8599;47.852;12.070;2022-11-27T13:58:55;8.10;;;5.43;;
16965;SDS011;8599;47.852;12.070;2022-11-27T14:01:23;8.70;;;5.80;;
16965;SDS011;8599;47.852;12.070;2022-11-27T14:03:50;9.73;;;4.87;;
16965;SDS011;8599;47.852;12.070;2022-11-27T14:06:21;8.73;;;5.17;;
16965;SDS011;8599;47.852;12.070;2022-11-27T14:08:54;9.70;;;5.37;;
16965;SDS011;8599;47.852;12.070;2022-11-27T14:11:30;11.83;;;5.13;;
16965;SDS011;8599;47.852;12.070;2022-11-27T14:14:00;7.73;;;5.40;;
16965;SDS011;8599;47.852;12.070;2022-11-27T14:16:37;11.13;;;6.30;;
16965;SDS011;8599;47.852;12.070;2022-11-27T14:19:05;7.70;;;5.43;;
16965;SDS011;8599;47.852;12.070;2022-11-27T14:21:52;8.93;;;6.23;;
16965;SDS011;8599;47.852;12.070;2022-11-27T14:24:26;12.67;;;6.87;;
16965;SDS011;8599;47.852;12.070;2022-11-27T14:27:05;6.40;;;5.17;;
16965;SDS011;8599;47.852;12.070;2022-11-27T14:29:40;7.50;;;5.00;;
16965;SDS011;8599;47.852;12.070;2022-11-27T14:32:07;10.50;;;6.43;;
16965;SDS011;8599;47.852;12.070;2022-11-27T14:34:37;8.43;;;6.30;;
16965;SDS011;8599;47.852;12.070;2022-11-27T14:37:04;10.27;;;6.30;;
16965;SDS011;8599;47.852;12.070;2022-11-27T14:39:33;20.20;;;6.47;;
16965;SDS011;8599;47.852;12.070;2022-11-27T14:42:01;9.47;;;5.90;;
16965;SDS011;8599;47.852;12.070;2022-11-27T14:44:29;7.53;;;5.13;;
16965;SDS011;8599;47.852;12.070;2022-11-27T14:46:58;12.07;;;6.63;;
16965;SDS011;8599;47.852;12.070;2022-11-27T14:49:27;8.43;;;5.77;;
16965;SDS011;8599;47.852;12.070;2022-11-27T14:51:56;7.73;;;5.53;;
16965;SDS011;8599;47.852;12.070;2022-11-27T14:54:26;10.73;;;6.13;;
16965;SDS011;8599;47.852;12.070;2022-11-27T14:56:56;8.23;;;5.80;;
16965;SDS011;8599;47.852;12.070;2022-11-27T14:59:23;9.07;;;6.10;;
16965;SDS011;8599;47.852;12.070;2022-11-27T15:01:58;9.07;;;6.23;;
16965;SDS011;8599;47.852;12.070;2022-11-27T15:04:27;10.30;;;6.43;;
16965;SDS011;8599;47.852;12.070;2022-11-27T15:06:58;10.33;;;6.13;;
16965;SDS011;8599;47.852;12.070;2022-11-27T15:09:26;8.10;;;5.27;;
16965;SDS011;8599;47.852;12.070;2022-11-27T15:11:57;10.20;;;5.90;;
16965;SDS011;8599;47.852;12.070;2022-11-27T15:14:26;17.37;;;6.77;;